sensor_id;sensor_type;location;lat;lon;timestamp;temperature;humidity
22145;DHT22;11238;48.730;11.566;2023-06-10T00:02:08;16.90;99.20
22145;DHT22;11238;48.730;11.566;2023-06-10T00:04:34;16.80;99.20
22145;DHT22;11238;48.730;11.566;2023-06-10T00:07:05;16.90;99.90
22145;DHT22;11238;48.730;11.566;2023-06-10T00:09:35;16.90;99.90
22145;DHT22;11238;48.730;11.566;2023-06-10T00:12:06;16.90;99.20
22145;DHT22;11238;48.730;11.566;2023-06-10T00:14:35;16.70;99.90
22145;DHT22;11238;48.730;11.566;2023-06-10T00:17:01;16.50;99.90
22145;DHT22;11238;48.730;11.566;2023-06-10T00:19:27;16.60;99.90
22145;DHT22;11238;48.730;11.566;2023-06-10T00:21:56;16.60;99.90
22145;DHT22;11238;48.730;11.566;2023-06-10T00:24:22;16.60;99.90
22145;DHT22;11238;48.730;11.566;2023-06-10T00:26:48;16.60;99.90
22145;DHT22;11238;48.730;11.566;2023-06-10T00:29:15;16.70;99.90
22145;DHT22;11238;48.730;11.566;2023-06-10T00:31:41;16.70;99.90
22145;DHT22;11238;48.730;11.566;2023-06-10T00:34:07;16.60;99.90
22145;DHT22;11238;48.730;11.566;2023-06-10T00:36:33;16.60;99.90
22145;DHT22;11238;48.730;11.566;2023-06-10T00:39:01;16.60;99.90
22145;DHT22;11238;48.730;11.566;2023-06-10T00:41:27;16.60;99.90
22145;DHT22;11238;48.730;11.566;2023-06-10T00:43:53;16.50;99.90
22145;DHT22;11238;48.730;11.566;2023-06-10T00:46:20;16.50;99.90
22145;DHT22;11238;48.730;11.566;2023-06-10T00:48:46;16.50;99.90
22145;DHT22;11238;48.730;11.566;2023-06-10T00:51:13;16.50;99.90
22145;DHT22;11238;48.730;11.566;2023-06-10T00:53:40;16.50;99.90
22145;DHT22;11238;48.730;11.566;2023-06-10T00:56:07;16.50;99.90
22145;DHT22;11238;48.730;11.566;2023-06-10T00:58:35;16.50;99.90
22145;DHT22;11238;48.730;11.566;2023-06-10T01:01:01;16.50;99.90
22145;DHT22;11238;48.730;11.566;2023-06-10T01:03:27;16.50;99.90
22145;DHT22;11238;48.730;11.566;2023-06-10T01:08:40;16.40;99.90
22145;DHT22;11238;48.730;11.566;2023-06-10T01:11:17;16.30;99.90
22145;DHT22;11238;48.730;11.566;2023-06-10T01:13:45;16.20;99.90
22145;DHT22;11238;48.730;11.566;2023-06-10T01:16:12;16.30;99.90
22145;DHT22;11238;48.730;11.566;2023-06-10T01:18:40;16.30;99.90
22145;DHT22;11238;48.730;11.566;2023-06-10T01:21:06;16.20;99.90
22145;DHT22;11238;48.730;11.566;2023-06-10T01:23:33;16.20;99.90
22145;DHT22;11238;48.730;11.566;2023-06-10T01:26:09;16.20;99.90
22145;DHT22;11238;48.730;11.566;2023-06-10T01:28:47;16.20;99.90
22145;DHT22;11238;48.730;11.566;2023-06-10T01:32:03;16.30;99.90
22145;DHT22;11238;48.730;11.566;2023-06-10T01:34:08;16.20;99.90
22145;DHT22;11238;48.730;11.566;2023-06-10T01:36:36;16.10;99.90
22145;DHT22;11238;48.730;11.566;2023-06-10T01:39:04;16.00;99.90
22145;DHT22;11238;48.730;11.566;2023-06-10T01:41:32;16.00;99.90
22145;DHT22;11238;48.730;11.566;2023-06-10T01:43:58;16.00;99.90
22145;DHT22;11238;48.730;11.566;2023-06-10T01:46:24;16.00;99.90
22145;DHT22;11238;48.730;11.566;2023-06-10T01:48:50;16.00;99.90
22145;DHT22;11238;48.730;11.566;2023-06-10T01:51:16;16.10;99.90
22145;DHT22;11238;48.730;11.566;2023-06-10T01:53:42;16.00;99.90
22145;DHT22;11238;48.730;11.566;2023-06-10T01:56:08;16.00;99.90
22145;DHT22;11238;48.730;11.566;2023-06-10T01:58:34;16.00;99.90
22145;DHT22;11238;48.730;11.566;2023-06-10T02:00:59;15.90;99.90
22145;DHT22;11238;48.730;11.566;2023-06-10T02:03:25;15.90;99.90
22145;DHT22;11238;48.730;11.566;2023-06-10T02:05:51;15.80;99.90
22145;DHT22;11238;48.730;11.566;2023-06-10T02:08:17;15.90;99.90
22145;DHT22;11238;48.730;11.566;2023-06-10T02:10:43;15.90;99.90
22145;DHT22;11238;48.730;11.566;2023-06-10T02:13:08;15.70;99.90
22145;DHT22;11238;48.730;11.566;2023-06-10T02:15:34;15.60;99.90
22145;DHT22;11238;48.730;11.566;2023-06-10T02:18:00;15.50;99.90
22145;DHT22;11238;48.730;11.566;2023-06-10T02:20:27;15.40;99.90
22145;DHT22;11238;48.730;11.566;2023-06-10T02:22:53;15.30;99.90
22145;DHT22;11238;48.730;11.566;2023-06-10T02:25:19;15.40;99.90
22145;DHT22;11238;48.730;11.566;2023-06-10T02:27:45;15.40;99.90
22145;DHT22;11238;48.730;11.566;2023-06-10T02:30:11;15.30;99.90
22145;DHT22;11238;48.730;11.566;2023-06-10T02:32:37;15.20;99.90
22145;DHT22;11238;48.730;11.566;2023-06-10T02:35:03;15.10;99.90
22145;DHT22;11238;48.730;11.566;2023-06-10T02:37:31;15.10;99.90
22145;DHT22;11238;48.730;11.566;2023-06-10T02:39:57;15.20;99.90
22145;DHT22;11238;48.730;11.566;2023-06-10T02:42:23;15.20;99.90
22145;DHT22;11238;48.730;11.566;2023-06-10T02:44:50;15.10;99.90
22145;DHT22;11238;48.730;11.566;2023-06-10T02:47:26;15.20;99.90
22145;DHT22;11238;48.730;11.566;2023-06-10T02:49:52;15.10;99.90
22145;DHT22;11238;48.730;11.566;2023-06-10T02:52:18;15.20;99.90
22145;DHT22;11238;48.730;11.566;2023-06-10T02:54:44;15.20;99.90
22145;DHT22;11238;48.730;11.566;2023-06-10T02:57:11;15.20;99.90
22145;DHT22;11238;48.730;11.566;2023-06-10T02:59:37;15.20;99.90
22145;DHT22;11238;48.730;11.566;2023-06-10T03:02:04;15.20;99.90
22145;DHT22;11238;48.730;11.566;2023-06-10T03:04:36;15.10;99.90
22145;DHT22;11238;48.730;11.566;2023-06-10T03:07:08;15.10;99.90
22145;DHT22;11238;48.730;11.566;2023-06-10T03:09:34;15.10;99.90
22145;DHT22;11238;48.730;11.566;2023-06-10T03:12:01;15.10;99.90
22145;DHT22;11238;48.730;11.566;2023-06-10T03:14:32;15.00;99.90
22145;DHT22;11238;48.730;11.566;2023-06-10T03:16:58;15.10;99.90
22145;DHT22;11238;48.730;11.566;2023-06-10T03:19:26;15.00;99.90
22145;DHT22;11238;48.730;11.566;2023-06-10T03:22:07;15.00;99.90
22145;DHT22;11238;48.730;11.566;2023-06-10T03:24:37;15.00;99.90
22145;DHT22;11238;48.730;11.566;2023-06-10T03:27:08;15.00;99.90
22145;DHT22;11238;48.730;11.566;2023-06-10T03:29:37;15.00;99.90
22145;DHT22;11238;48.730;11.566;2023-06-10T03:32:05;15.00;99.90
22145;DHT22;11238;48.730;11.566;2023-06-10T03:34:32;15.00;99.90
22145;DHT22;11238;48.730;11.566;2023-06-10T03:36:58;14.80;99.90
22145;DHT22;11238;48.730;11.566;2023-06-10T03:39:25;14.70;99.90
22145;DHT22;11238;48.730;11.566;2023-06-10T03:41:51;14.60;99.90
22145;DHT22;11238;48.730;11.566;2023-06-10T03:44:17;14.70;99.90
22145;DHT22;11238;48.730;11.566;2023-06-10T03:46:43;14.80;99.90
22145;DHT22;11238;48.730;11.566;2023-06-10T03:49:09;14.80;99.90
22145;DHT22;11238;48.730;11.566;2023-06-10T03:51:36;14.80;99.90
22145;DHT22;11238;48.730;11.566;2023-06-10T03:54:03;14.80;99.90
22145;DHT22;11238;48.730;11.566;2023-06-10T03:56:29;14.80;99.90
22145;DHT22;11238;48.730;11.566;2023-06-10T03:58:54;14.80;99.90
22145;DHT22;11238;48.730;11.566;2023-06-10T04:01:21;14.80;99.90
22145;DHT22;11238;48.730;11.566;2023-06-10T04:03:48;14.80;99.90
22145;DHT22;11238;48.730;11.566;2023-06-10T04:06:14;14.70;99.90
22145;DHT22;11238;48.730;11.566;2023-06-10T04:08:41;14.70;99.90
22145;DHT22;11238;48.730;11.566;2023-06-10T04:11:09;14.80;99.90
22145;DHT22;11238;48.730;11.566;2023-06-10T04:13:35;14.80;99.90
22145;DHT22;11238;48.730;11.566;2023-06-10T04:16:01;14.70;99.90
22145;DHT22;11238;48.730;11.566;2023-06-10T04:18:28;14.70;99.90
22145;DHT22;11238;48.730;11.566;2023-06-10T04:20:57;14.40;99.90
22145;DHT22;11238;48.730;11.566;2023-06-10T04:23:23;14.50;99.90
22145;DHT22;11238;48.730;11.566;2023-06-10T04:25:50;14.50;99.90
22145;DHT22;11238;48.730;11.566;2023-06-10T04:28:17;14.60;99.90
22145;DHT22;11238;48.730;11.566;2023-06-10T04:30:43;14.70;99.90
22145;DHT22;11238;48.730;11.566;2023-06-10T04:33:11;14.80;99.90
22145;DHT22;11238;48.730;11.566;2023-06-10T04:35:38;14.80;99.90
22145;DHT22;11238;48.730;11.566;2023-06-10T04:38:06;14.90;99.90
22145;DHT22;11238;48.730;11.566;2023-06-10T04:40:32;15.00;99.90
22145;DHT22;11238;48.730;11.566;2023-06-10T04:42:59;15.10;99.90
22145;DHT22;11238;48.730;11.566;2023-06-10T04:45:25;15.10;99.90
22145;DHT22;11238;48.730;11.566;2023-06-10T04:47:51;15.20;99.90
22145;DHT22;11238;48.730;11.566;2023-06-10T04:50:17;15.10;99.90
22145;DHT22;11238;48.730;11.566;2023-06-10T04:52:43;15.20;99.90
22145;DHT22;11238;48.730;11.566;2023-06-10T04:55:09;15.20;99.90
22145;DHT22;11238;48.730;11.566;2023-06-10T04:57:36;15.40;99.90
22145;DHT22;11238;48.730;11.566;2023-06-10T05:00:03;15.70;99.90
22145;DHT22;11238;48.730;11.566;2023-06-10T05:02:31;15.90;99.90
22145;DHT22;11238;48.730;11.566;2023-06-10T05:04:57;16.10;99.90
22145;DHT22;11238;48.730;11.566;2023-06-10T05:07:24;16.30;99.90
22145;DHT22;11238;48.730;11.566;2023-06-10T05:09:50;16.50;99.90
22145;DHT22;11238;48.730;11.566;2023-06-10T05:12:15;16.60;99.90
22145;DHT22;11238;48.730;11.566;2023-06-10T05:14:41;16.70;99.90
22145;DHT22;11238;48.730;11.566;2023-06-10T05:17:07;16.80;99.90
22145;DHT22;11238;48.730;11.566;2023-06-10T05:19:33;16.90;99.90
22145;DHT22;11238;48.730;11.566;2023-06-10T05:22:02;17.00;99.90
22145;DHT22;11238;48.730;11.566;2023-06-10T05:24:28;17.00;99.90
22145;DHT22;11238;48.730;11.566;2023-06-10T05:26:57;17.00;99.90
22145;DHT22;11238;48.730;11.566;2023-06-10T05:29:24;17.20;99.90
22145;DHT22;11238;48.730;11.566;2023-06-10T05:31:49;17.20;99.90
22145;DHT22;11238;48.730;11.566;2023-06-10T05:34:15;17.30;99.90
22145;DHT22;11238;48.730;11.566;2023-06-10T05:36:41;17.30;99.90
22145;DHT22;11238;48.730;11.566;2023-06-10T05:39:08;17.40;99.90
22145;DHT22;11238;48.730;11.566;2023-06-10T05:41:35;17.60;99.90
22145;DHT22;11238;48.730;11.566;2023-06-10T05:44:00;17.60;99.90
22145;DHT22;11238;48.730;11.566;2023-06-10T05:46:26;17.70;99.90
22145;DHT22;11238;48.730;11.566;2023-06-10T05:48:53;17.80;99.90
22145;DHT22;11238;48.730;11.566;2023-06-10T05:51:19;17.80;99.90
22145;DHT22;11238;48.730;11.566;2023-06-10T05:53:45;17.90;99.90
22145;DHT22;11238;48.730;11.566;2023-06-10T05:56:13;18.00;99.90
22145;DHT22;11238;48.730;11.566;2023-06-10T05:58:39;18.00;99.90
22145;DHT22;11238;48.730;11.566;2023-06-10T06:01:05;18.10;99.90
22145;DHT22;11238;48.730;11.566;2023-06-10T06:03:31;18.20;99.90
22145;DHT22;11238;48.730;11.566;2023-06-10T06:05:57;18.30;99.90
22145;DHT22;11238;48.730;11.566;2023-06-10T06:08:23;18.40;99.90
22145;DHT22;11238;48.730;11.566;2023-06-10T06:10:48;18.50;99.90
22145;DHT22;11238;48.730;11.566;2023-06-10T06:13:14;18.60;99.90
22145;DHT22;11238;48.730;11.566;2023-06-10T06:15:40;18.70;99.90
22145;DHT22;11238;48.730;11.566;2023-06-10T06:18:06;18.80;99.90
22145;DHT22;11238;48.730;11.566;2023-06-10T06:20:32;18.80;99.90
22145;DHT22;11238;48.730;11.566;2023-06-10T06:22:58;18.90;99.90
22145;DHT22;11238;48.730;11.566;2023-06-10T06:25:24;19.00;99.90
22145;DHT22;11238;48.730;11.566;2023-06-10T06:27:50;19.10;99.90
22145;DHT22;11238;48.730;11.566;2023-06-10T06:30:15;19.20;99.90
22145;DHT22;11238;48.730;11.566;2023-06-10T06:32:41;19.20;99.90
22145;DHT22;11238;48.730;11.566;2023-06-10T06:35:07;19.40;99.90
22145;DHT22;11238;48.730;11.566;2023-06-10T06:37:34;19.40;99.90
22145;DHT22;11238;48.730;11.566;2023-06-10T06:40:14;19.60;99.90
22145;DHT22;11238;48.730;11.566;2023-06-10T06:42:40;19.70;99.90
22145;DHT22;11238;48.730;11.566;2023-06-10T06:45:22;19.70;99.90
22145;DHT22;11238;48.730;11.566;2023-06-10T06:47:47;19.70;99.90
22145;DHT22;11238;48.730;11.566;2023-06-10T06:50:13;19.90;99.90
22145;DHT22;11238;48.730;11.566;2023-06-10T06:52:39;19.90;99.90
22145;DHT22;11238;48.730;11.566;2023-06-10T06:55:05;19.90;99.90
22145;DHT22;11238;48.730;11.566;2023-06-10T06:57:32;20.10;99.90
22145;DHT22;11238;48.730;11.566;2023-06-10T06:59:58;20.20;99.90
22145;DHT22;11238;48.730;11.566;2023-06-10T07:02:23;20.20;99.90
22145;DHT22;11238;48.730;11.566;2023-06-10T07:04:49;20.30;99.90
22145;DHT22;11238;48.730;11.566;2023-06-10T07:07:15;20.30;99.90
22145;DHT22;11238;48.730;11.566;2023-06-10T07:09:41;20.40;99.90
22145;DHT22;11238;48.730;11.566;2023-06-10T07:12:08;20.50;99.90
22145;DHT22;11238;48.730;11.566;2023-06-10T07:14:34;20.50;99.90
22145;DHT22;11238;48.730;11.566;2023-06-10T07:17:00;20.60;99.90
22145;DHT22;11238;48.730;11.566;2023-06-10T07:19:26;20.60;99.90
22145;DHT22;11238;48.730;11.566;2023-06-10T07:21:52;20.70;99.90
22145;DHT22;11238;48.730;11.566;2023-06-10T07:24:18;20.80;99.90
22145;DHT22;11238;48.730;11.566;2023-06-10T07:26:45;20.80;99.90
22145;DHT22;11238;48.730;11.566;2023-06-10T07:29:12;21.00;99.90
22145;DHT22;11238;48.730;11.566;2023-06-10T07:31:38;21.00;99.90
22145;DHT22;11238;48.730;11.566;2023-06-10T07:34:06;21.10;99.90
22145;DHT22;11238;48.730;11.566;2023-06-10T07:36:31;21.20;99.90
22145;DHT22;11238;48.730;11.566;2023-06-10T07:38:58;21.20;99.90
22145;DHT22;11238;48.730;11.566;2023-06-10T07:41:24;21.40;99.90
22145;DHT22;11238;48.730;11.566;2023-06-10T07:43:53;21.40;99.90
22145;DHT22;11238;48.730;11.566;2023-06-10T07:46:23;21.40;99.90
22145;DHT22;11238;48.730;11.566;2023-06-10T07:48:49;21.60;99.90
22145;DHT22;11238;48.730;11.566;2023-06-10T07:51:20;21.70;99.90
22145;DHT22;11238;48.730;11.566;2023-06-10T07:53:47;21.70;99.90
22145;DHT22;11238;48.730;11.566;2023-06-10T07:56:13;21.90;99.90
22145;DHT22;11238;48.730;11.566;2023-06-10T07:58:39;22.00;99.90
22145;DHT22;11238;48.730;11.566;2023-06-10T08:01:05;22.10;99.90
22145;DHT22;11238;48.730;11.566;2023-06-10T08:03:30;22.20;99.90
22145;DHT22;11238;48.730;11.566;2023-06-10T08:05:56;22.30;99.40
22145;DHT22;11238;48.730;11.566;2023-06-10T08:08:22;22.40;99.90
22145;DHT22;11238;48.730;11.566;2023-06-10T08:10:48;22.60;98.70
22145;DHT22;11238;48.730;11.566;2023-06-10T08:13:15;22.60;99.30
22145;DHT22;11238;48.730;11.566;2023-06-10T08:15:40;22.60;98.40
22145;DHT22;11238;48.730;11.566;2023-06-10T08:18:06;22.50;98.20
22145;DHT22;11238;48.730;11.566;2023-06-10T08:20:32;22.60;98.00
22145;DHT22;11238;48.730;11.566;2023-06-10T08:22:58;22.70;96.60
22145;DHT22;11238;48.730;11.566;2023-06-10T08:25:25;22.60;96.60
22145;DHT22;11238;48.730;11.566;2023-06-10T08:27:51;22.60;96.90
22145;DHT22;11238;48.730;11.566;2023-06-10T08:30:18;22.80;96.30
22145;DHT22;11238;48.730;11.566;2023-06-10T08:32:44;22.90;96.30
22145;DHT22;11238;48.730;11.566;2023-06-10T08:35:10;23.10;96.40
22145;DHT22;11238;48.730;11.566;2023-06-10T08:37:36;23.30;94.90
22145;DHT22;11238;48.730;11.566;2023-06-10T08:40:02;23.50;94.60
22145;DHT22;11238;48.730;11.566;2023-06-10T08:42:49;23.50;93.70
22145;DHT22;11238;48.730;11.566;2023-06-10T08:45:18;23.30;92.20
22145;DHT22;11238;48.730;11.566;2023-06-10T08:47:45;23.30;92.40
22145;DHT22;11238;48.730;11.566;2023-06-10T08:50:16;23.10;92.40
22145;DHT22;11238;48.730;11.566;2023-06-10T08:52:43;23.20;92.20
22145;DHT22;11238;48.730;11.566;2023-06-10T08:55:10;23.10;92.10
22145;DHT22;11238;48.730;11.566;2023-06-10T08:57:37;23.00;91.90
22145;DHT22;11238;48.730;11.566;2023-06-10T09:00:03;23.00;92.00
22145;DHT22;11238;48.730;11.566;2023-06-10T09:02:31;23.10;93.00
22145;DHT22;11238;48.730;11.566;2023-06-10T09:05:22;23.20;92.20
22145;DHT22;11238;48.730;11.566;2023-06-10T09:07:48;23.20;92.00
22145;DHT22;11238;48.730;11.566;2023-06-10T09:10:15;23.30;92.20
22145;DHT22;11238;48.730;11.566;2023-06-10T09:12:41;23.40;92.40
22145;DHT22;11238;48.730;11.566;2023-06-10T09:15:07;23.60;93.40
22145;DHT22;11238;48.730;11.566;2023-06-10T09:17:34;23.70;91.10
22145;DHT22;11238;48.730;11.566;2023-06-10T09:20:02;23.60;90.40
22145;DHT22;11238;48.730;11.566;2023-06-10T09:22:28;23.90;91.10
22145;DHT22;11238;48.730;11.566;2023-06-10T09:25:06;24.10;91.50
22145;DHT22;11238;48.730;11.566;2023-06-10T09:27:52;24.00;91.00
22145;DHT22;11238;48.730;11.566;2023-06-10T09:30:41;24.10;91.60
22145;DHT22;11238;48.730;11.566;2023-06-10T09:33:13;24.30;90.80
22145;DHT22;11238;48.730;11.566;2023-06-10T09:35:47;24.10;90.50
22145;DHT22;11238;48.730;11.566;2023-06-10T09:38:15;24.00;90.20
22145;DHT22;11238;48.730;11.566;2023-06-10T09:40:52;24.00;90.70
22145;DHT22;11238;48.730;11.566;2023-06-10T09:43:18;24.00;90.00
22145;DHT22;11238;48.730;11.566;2023-06-10T09:45:46;24.00;89.20
22145;DHT22;11238;48.730;11.566;2023-06-10T09:48:13;24.00;89.20
22145;DHT22;11238;48.730;11.566;2023-06-10T09:50:45;23.90;89.30
22145;DHT22;11238;48.730;11.566;2023-06-10T09:53:12;23.70;88.60
22145;DHT22;11238;48.730;11.566;2023-06-10T09:55:38;23.60;88.70
22145;DHT22;11238;48.730;11.566;2023-06-10T09:58:04;23.60;88.40
22145;DHT22;11238;48.730;11.566;2023-06-10T10:00:32;23.60;88.30
22145;DHT22;11238;48.730;11.566;2023-06-10T10:02:59;23.60;87.60
22145;DHT22;11238;48.730;11.566;2023-06-10T10:05:25;23.50;88.20
22145;DHT22;11238;48.730;11.566;2023-06-10T10:07:51;23.50;87.40
22145;DHT22;11238;48.730;11.566;2023-06-10T10:10:19;23.50;88.60
22145;DHT22;11238;48.730;11.566;2023-06-10T10:12:53;23.60;89.60
22145;DHT22;11238;48.730;11.566;2023-06-10T10:15:22;23.60;89.40
22145;DHT22;11238;48.730;11.566;2023-06-10T10:17:53;23.90;90.20
22145;DHT22;11238;48.730;11.566;2023-06-10T10:20:29;24.10;89.80
22145;DHT22;11238;48.730;11.566;2023-06-10T10:23:02;24.30;90.10
22145;DHT22;11238;48.730;11.566;2023-06-10T10:25:29;24.40;88.50
22145;DHT22;11238;48.730;11.566;2023-06-10T10:28:05;24.20;86.90
22145;DHT22;11238;48.730;11.566;2023-06-10T10:30:42;24.10;86.80
22145;DHT22;11238;48.730;11.566;2023-06-10T10:33:33;23.90;87.00
22145;DHT22;11238;48.730;11.566;2023-06-10T10:36:02;23.80;88.00
22145;DHT22;11238;48.730;11.566;2023-06-10T10:38:28;23.70;88.40
22145;DHT22;11238;48.730;11.566;2023-06-10T10:40:55;23.60;88.80
22145;DHT22;11238;48.730;11.566;2023-06-10T10:43:28;23.50;88.00
22145;DHT22;11238;48.730;11.566;2023-06-10T10:46:02;23.40;86.90
22145;DHT22;11238;48.730;11.566;2023-06-10T10:48:37;23.40;87.70
22145;DHT22;11238;48.730;11.566;2023-06-10T10:51:04;23.50;88.00
22145;DHT22;11238;48.730;11.566;2023-06-10T10:53:30;23.20;87.00
22145;DHT22;11238;48.730;11.566;2023-06-10T10:58:25;23.30;88.60
22145;DHT22;11238;48.730;11.566;2023-06-10T11:00:51;23.40;86.90
22145;DHT22;11238;48.730;11.566;2023-06-10T11:03:17;23.40;86.80
22145;DHT22;11238;48.730;11.566;2023-06-10T11:05:45;23.30;87.10
22145;DHT22;11238;48.730;11.566;2023-06-10T11:08:45;23.50;88.90
22145;DHT22;11238;48.730;11.566;2023-06-10T11:11:25;23.70;88.10
22145;DHT22;11238;48.730;11.566;2023-06-10T11:16:28;24.10;86.80
22145;DHT22;11238;48.730;11.566;2023-06-10T11:19:35;24.30;86.70
22145;DHT22;11238;48.730;11.566;2023-06-10T11:22:05;24.50;82.70
22145;DHT22;11238;48.730;11.566;2023-06-10T11:24:31;24.50;82.40
22145;DHT22;11238;48.730;11.566;2023-06-10T11:27:22;24.60;82.90
22145;DHT22;11238;48.730;11.566;2023-06-10T11:32:30;24.70;82.10
22145;DHT22;11238;48.730;11.566;2023-06-10T11:34:57;25.10;83.30
22145;DHT22;11238;48.730;11.566;2023-06-10T11:37:23;25.30;79.50
22145;DHT22;11238;48.730;11.566;2023-06-10T11:39:56;25.40;79.70
22145;DHT22;11238;48.730;11.566;2023-06-10T11:42:22;25.50;79.40
22145;DHT22;11238;48.730;11.566;2023-06-10T11:45:15;25.50;79.40
22145;DHT22;11238;48.730;11.566;2023-06-10T11:47:55;25.60;76.10
22145;DHT22;11238;48.730;11.566;2023-06-10T11:50:31;25.40;75.50
22145;DHT22;11238;48.730;11.566;2023-06-10T11:52:58;25.30;74.30
22145;DHT22;11238;48.730;11.566;2023-06-10T11:55:44;25.50;78.60
22145;DHT22;11238;48.730;11.566;2023-06-10T11:58:17;25.60;74.20
22145;DHT22;11238;48.730;11.566;2023-06-10T12:00:54;26.00;74.70
22145;DHT22;11238;48.730;11.566;2023-06-10T12:03:21;26.50;75.80
22145;DHT22;11238;48.730;11.566;2023-06-10T12:05:59;26.30;73.00
22145;DHT22;11238;48.730;11.566;2023-06-10T12:08:26;26.40;73.80
22145;DHT22;11238;48.730;11.566;2023-06-10T12:10:52;26.20;72.80
22145;DHT22;11238;48.730;11.566;2023-06-10T12:13:17;25.90;71.20
22145;DHT22;11238;48.730;11.566;2023-06-10T12:15:44;26.50;76.20
22145;DHT22;11238;48.730;11.566;2023-06-10T12:18:19;26.90;73.20
22145;DHT22;11238;48.730;11.566;2023-06-10T12:20:46;26.80;71.60
22145;DHT22;11238;48.730;11.566;2023-06-10T12:23:12;26.90;71.20
22145;DHT22;11238;48.730;11.566;2023-06-10T12:25:38;26.80;70.90
22145;DHT22;11238;48.730;11.566;2023-06-10T12:28:05;26.60;73.40
22145;DHT22;11238;48.730;11.566;2023-06-10T12:30:32;26.60;73.40
22145;DHT22;11238;48.730;11.566;2023-06-10T12:32:59;26.40;72.20
22145;DHT22;11238;48.730;11.566;2023-06-10T12:35:26;26.10;74.50
22145;DHT22;11238;48.730;11.566;2023-06-10T12:38:03;26.00;75.40
22145;DHT22;11238;48.730;11.566;2023-06-10T12:40:38;26.00;75.80
22145;DHT22;11238;48.730;11.566;2023-06-10T12:43:06;26.00;76.00
22145;DHT22;11238;48.730;11.566;2023-06-10T12:45:34;25.80;76.10
22145;DHT22;11238;48.730;11.566;2023-06-10T12:48:08;25.60;76.50
22145;DHT22;11238;48.730;11.566;2023-06-10T12:50:39;25.40;76.50
22145;DHT22;11238;48.730;11.566;2023-06-10T12:53:06;25.30;78.50
22145;DHT22;11238;48.730;11.566;2023-06-10T12:55:33;25.40;79.30
22145;DHT22;11238;48.730;11.566;2023-06-10T12:58:00;25.60;78.50
22145;DHT22;11238;48.730;11.566;2023-06-10T13:00:27;25.50;78.50
22145;DHT22;11238;48.730;11.566;2023-06-10T13:02:56;25.30;78.60
22145;DHT22;11238;48.730;11.566;2023-06-10T13:05:22;25.30;77.10
22145;DHT22;11238;48.730;11.566;2023-06-10T13:07:48;25.10;79.30
22145;DHT22;11238;48.730;11.566;2023-06-10T13:10:15;25.10;79.40
22145;DHT22;11238;48.730;11.566;2023-06-10T13:12:43;25.10;79.40
22145;DHT22;11238;48.730;11.566;2023-06-10T13:15:09;25.20;80.10
22145;DHT22;11238;48.730;11.566;2023-06-10T13:17:36;25.20;81.40
22145;DHT22;11238;48.730;11.566;2023-06-10T13:20:06;25.20;79.80
22145;DHT22;11238;48.730;11.566;2023-06-10T13:22:33;25.40;80.70
22145;DHT22;11238;48.730;11.566;2023-06-10T13:25:03;25.80;81.10
22145;DHT22;11238;48.730;11.566;2023-06-10T13:27:30;26.10;79.50
22145;DHT22;11238;48.730;11.566;2023-06-10T13:29:56;26.30;75.60
22145;DHT22;11238;48.730;11.566;2023-06-10T13:32:22;26.50;76.60
22145;DHT22;11238;48.730;11.566;2023-06-10T13:34:48;26.80;74.90
22145;DHT22;11238;48.730;11.566;2023-06-10T13:37:15;26.90;71.60
22145;DHT22;11238;48.730;11.566;2023-06-10T13:39:43;27.00;74.80
22145;DHT22;11238;48.730;11.566;2023-06-10T13:42:09;27.20;73.20
22145;DHT22;11238;48.730;11.566;2023-06-10T13:44:35;27.20;69.00
22145;DHT22;11238;48.730;11.566;2023-06-10T13:47:05;27.20;70.90
22145;DHT22;11238;48.730;11.566;2023-06-10T13:49:32;27.20;71.50
22145;DHT22;11238;48.730;11.566;2023-06-10T13:51:58;27.10;70.80
22145;DHT22;11238;48.730;11.566;2023-06-10T13:54:23;27.00;71.40
22145;DHT22;11238;48.730;11.566;2023-06-10T13:56:50;26.80;72.80
22145;DHT22;11238;48.730;11.566;2023-06-10T13:59:15;26.80;73.30
22145;DHT22;11238;48.730;11.566;2023-06-10T14:01:42;27.10;75.50
22145;DHT22;11238;48.730;11.566;2023-06-10T14:04:07;27.20;74.30
22145;DHT22;11238;48.730;11.566;2023-06-10T14:06:34;27.40;72.10
22145;DHT22;11238;48.730;11.566;2023-06-10T14:09:00;27.40;71.80
22145;DHT22;11238;48.730;11.566;2023-06-10T14:11:26;27.10;71.30
22145;DHT22;11238;48.730;11.566;2023-06-10T14:13:52;26.80;71.90
22145;DHT22;11238;48.730;11.566;2023-06-10T14:16:18;26.60;71.90
22145;DHT22;11238;48.730;11.566;2023-06-10T14:18:44;26.20;77.90
22145;DHT22;11238;48.730;11.566;2023-06-10T14:21:10;25.40;84.20
22145;DHT22;11238;48.730;11.566;2023-06-10T14:23:36;24.50;90.40
22145;DHT22;11238;48.730;11.566;2023-06-10T14:26:02;23.80;92.40
22145;DHT22;11238;48.730;11.566;2023-06-10T14:28:28;23.60;94.90
22145;DHT22;11238;48.730;11.566;2023-06-10T14:30:55;23.60;98.60
22145;DHT22;11238;48.730;11.566;2023-06-10T14:33:23;23.70;99.70
22145;DHT22;11238;48.730;11.566;2023-06-10T14:35:49;23.60;99.90
22145;DHT22;11238;48.730;11.566;2023-06-10T14:38:15;23.40;99.90
22145;DHT22;11238;48.730;11.566;2023-06-10T14:40:41;23.20;99.90
22145;DHT22;11238;48.730;11.566;2023-06-10T14:43:07;22.80;99.90
22145;DHT22;11238;48.730;11.566;2023-06-10T14:45:39;22.60;99.90
22145;DHT22;11238;48.730;11.566;2023-06-10T14:48:06;22.90;99.90
22145;DHT22;11238;48.730;11.566;2023-06-10T14:50:37;23.40;99.90
22145;DHT22;11238;48.730;11.566;2023-06-10T14:53:03;24.00;99.90
22145;DHT22;11238;48.730;11.566;2023-06-10T14:55:29;24.40;99.90
22145;DHT22;11238;48.730;11.566;2023-06-10T14:57:54;24.90;99.00
22145;DHT22;11238;48.730;11.566;2023-06-10T15:00:22;25.10;96.30
22145;DHT22;11238;48.730;11.566;2023-06-10T15:02:50;25.40;95.00
22145;DHT22;11238;48.730;11.566;2023-06-10T15:05:17;25.70;94.70
22145;DHT22;11238;48.730;11.566;2023-06-10T15:07:45;26.10;96.90
22145;DHT22;11238;48.730;11.566;2023-06-10T15:10:11;26.40;95.00
22145;DHT22;11238;48.730;11.566;2023-06-10T15:12:37;26.60;90.70
22145;DHT22;11238;48.730;11.566;2023-06-10T15:15:04;26.80;90.90
22145;DHT22;11238;48.730;11.566;2023-06-10T15:17:29;26.70;88.20
22145;DHT22;11238;48.730;11.566;2023-06-10T15:19:58;26.50;84.10
22145;DHT22;11238;48.730;11.566;2023-06-10T15:22:24;26.30;83.80
22145;DHT22;11238;48.730;11.566;2023-06-10T15:24:50;26.00;83.80
22145;DHT22;11238;48.730;11.566;2023-06-10T15:27:16;25.60;82.00
22145;DHT22;11238;48.730;11.566;2023-06-10T15:29:41;25.50;83.60
22145;DHT22;11238;48.730;11.566;2023-06-10T15:32:08;25.10;82.70